sensor_id;sensor_type;location;lat;lon;timestamp;pressure;altitude;pressure_sealevel;temperature;humidity
47742;BME280;33504;52.066;6.096;2023-06-14T00:01:14;101465.58;;;22.21;25.44
47742;BME280;33504;52.066;6.096;2023-06-14T00:03:41;101465.49;;;22.08;25.78
47742;BME280;33504;52.066;6.096;2023-06-14T00:06:07;101467.49;;;22.07;25.18
47742;BME280;33504;52.066;6.096;2023-06-14T00:08:34;101467.26;;;22.02;25.16
47742;BME280;33504;52.066;6.096;2023-06-14T00:11:02;101468.28;;;22.17;25.51
47742;BME280;33504;52.066;6.096;2023-06-14T00:13:29;101467.98;;;21.83;25.52
47742;BME280;33504;52.066;6.096;2023-06-14T00:15:56;101468.76;;;21.77;25.60
47742;BME280;33504;52.066;6.096;2023-06-14T00:18:23;101472.78;;;21.97;25.55
47742;BME280;33504;52.066;6.096;2023-06-14T00:20:51;101471.82;;;22.09;25.66
47742;BME280;33504;52.066;6.096;2023-06-14T00:23:18;101476.09;;;21.76;25.75
47742;BME280;33504;52.066;6.096;2023-06-14T00:25:46;101480.83;;;21.91;25.87
47742;BME280;33504;52.066;6.096;2023-06-14T00:28:13;101478.34;;;21.53;26.60
47742;BME280;33504;52.066;6.096;2023-06-14T00:30:40;101483.79;;;21.78;26.04
47742;BME280;33504;52.066;6.096;2023-06-14T00:33:07;101485.02;;;21.65;26.75
47742;BME280;33504;52.066;6.096;2023-06-14T00:35:33;101486.59;;;21.45;26.16
47742;BME280;33504;52.066;6.096;2023-06-14T00:38:00;101481.69;;;21.41;26.20
47742;BME280;33504;52.066;6.096;2023-06-14T00:40:27;101481.67;;;21.61;26.48
47742;BME280;33504;52.066;6.096;2023-06-14T00:42:53;101481.86;;;21.57;26.55
47742;BME280;33504;52.066;6.096;2023-06-14T00:45:21;101483.24;;;21.30;26.52
47742;BME280;33504;52.066;6.096;2023-06-14T00:47:49;101481.87;;;21.25;26.67
47742;BME280;33504;52.066;6.096;2023-06-14T00:50:17;101485.70;;;21.39;27.03
47742;BME280;33504;52.066;6.096;2023-06-14T00:52:44;101484.01;;;21.42;26.70
47742;BME280;33504;52.066;6.096;2023-06-14T00:55:11;101486.75;;;21.36;26.69
47742;BME280;33504;52.066;6.096;2023-06-14T00:57:39;101487.01;;;21.28;27.05
47742;BME280;33504;52.066;6.096;2023-06-14T01:00:07;101484.39;;;20.91;27.30
47742;BME280;33504;52.066;6.096;2023-06-14T01:02:35;101486.10;;;21.16;27.03
47742;BME280;33504;52.066;6.096;2023-06-14T01:05:03;101488.99;;;21.09;27.06
47742;BME280;33504;52.066;6.096;2023-06-14T01:07:36;101490.34;;;20.98;27.28
47742;BME280;33504;52.066;6.096;2023-06-14T01:10:20;101493.13;;;20.90;27.29
47742;BME280;33504;52.066;6.096;2023-06-14T01:12:55;101491.08;;;20.77;27.49
47742;BME280;33504;52.066;6.096;2023-06-14T01:15:25;101492.59;;;20.65;27.66
47742;BME280;33504;52.066;6.096;2023-06-14T01:17:54;101491.49;;;20.56;27.87
47742;BME280;33504;52.066;6.096;2023-06-14T01:20:22;101492.29;;;20.49;27.88
47742;BME280;33504;52.066;6.096;2023-06-14T01:22:51;101489.07;;;20.63;28.07
47742;BME280;33504;52.066;6.096;2023-06-14T01:25:17;101490.04;;;20.79;28.24
47742;BME280;33504;52.066;6.096;2023-06-14T01:27:44;101491.32;;;20.53;28.23
47742;BME280;33504;52.066;6.096;2023-06-14T01:30:11;101489.92;;;20.67;28.31
47742;BME280;33504;52.066;6.096;2023-06-14T01:32:39;101487.94;;;20.13;28.51
47742;BME280;33504;52.066;6.096;2023-06-14T01:35:06;101489.93;;;20.59;28.46
47742;BME280;33504;52.066;6.096;2023-06-14T01:37:33;101490.11;;;20.50;28.62
47742;BME280;33504;52.066;6.096;2023-06-14T01:40:01;101492.23;;;20.47;28.59
47742;BME280;33504;52.066;6.096;2023-06-14T01:42:29;101493.59;;;20.15;28.91
47742;BME280;33504;52.066;6.096;2023-06-14T01:44:56;101497.47;;;20.38;28.79
47742;BME280;33504;52.066;6.096;2023-06-14T01:47:24;101498.64;;;20.36;28.74
47742;BME280;33504;52.066;6.096;2023-06-14T01:49:51;101496.74;;;20.31;28.85
47742;BME280;33504;52.066;6.096;2023-06-14T01:52:19;101493.23;;;20.22;29.00
47742;BME280;33504;52.066;6.096;2023-06-14T01:54:45;101493.87;;;20.19;29.07
47742;BME280;33504;52.066;6.096;2023-06-14T01:57:12;101491.65;;;20.17;28.93
47742;BME280;33504;52.066;6.096;2023-06-14T01:59:39;101490.60;;;20.12;29.06
47742;BME280;33504;52.066;6.096;2023-06-14T02:02:05;101491.26;;;20.06;29.37
47742;BME280;33504;52.066;6.096;2023-06-14T02:04:32;101490.03;;;19.79;29.15
47742;BME280;33504;52.066;6.096;2023-06-14T02:06:59;101491.01;;;19.97;29.26
47742;BME280;33504;52.066;6.096;2023-06-14T02:09:27;101487.99;;;19.70;29.36
47742;BME280;33504;52.066;6.096;2023-06-14T02:11:54;101489.67;;;19.88;29.39
47742;BME280;33504;52.066;6.096;2023-06-14T02:14:21;101489.82;;;19.80;29.50
47742;BME280;33504;52.066;6.096;2023-06-14T02:16:47;101489.21;;;19.72;29.54
47742;BME280;33504;52.066;6.096;2023-06-14T02:19:14;101489.19;;;19.63;29.65
47742;BME280;33504;52.066;6.096;2023-06-14T02:21:42;101491.50;;;19.51;30.15
47742;BME280;33504;52.066;6.096;2023-06-14T02:24:09;101489.00;;;19.53;29.85
47742;BME280;33504;52.066;6.096;2023-06-14T02:26:36;101490.87;;;19.51;30.03
47742;BME280;33504;52.066;6.096;2023-06-14T02:29:03;101488.53;;;19.72;29.96
47742;BME280;33504;52.066;6.096;2023-06-14T02:31:31;101489.44;;;19.41;30.11
47742;BME280;33504;52.066;6.096;2023-06-14T02:33:59;101490.61;;;19.64;30.09
47742;BME280;33504;52.066;6.096;2023-06-14T02:36:25;101488.83;;;19.33;30.40
47742;BME280;33504;52.066;6.096;2023-06-14T02:38:52;101491.62;;;19.34;30.31
47742;BME280;33504;52.066;6.096;2023-06-14T02:41:19;101493.83;;;19.36;30.18
47742;BME280;33504;52.066;6.096;2023-06-14T02:43:45;101492.36;;;19.49;30.58
47742;BME280;33504;52.066;6.096;2023-06-14T02:46:13;101491.27;;;19.31;30.24
47742;BME280;33504;52.066;6.096;2023-06-14T02:48:39;101493.17;;;19.45;30.79
47742;BME280;33504;52.066;6.096;2023-06-14T02:51:06;101494.30;;;19.23;30.44
47742;BME280;33504;52.066;6.096;2023-06-14T02:53:33;101497.52;;;19.71;30.43
47742;BME280;33504;52.066;6.096;2023-06-14T02:55:59;101499.28;;;19.42;30.66
47742;BME280;33504;52.066;6.096;2023-06-14T02:58:26;101500.51;;;19.34;30.68
47742;BME280;33504;52.066;6.096;2023-06-14T03:00:54;101502.07;;;19.27;30.78
47742;BME280;33504;52.066;6.096;2023-06-14T03:03:21;101502.34;;;19.25;30.80
47742;BME280;33504;52.066;6.096;2023-06-14T03:05:48;101507.70;;;18.99;30.59
47742;BME280;33504;52.066;6.096;2023-06-14T03:08:15;101507.61;;;19.43;30.80
47742;BME280;33504;52.066;6.096;2023-06-14T03:10:43;101512.99;;;19.39;30.79
47742;BME280;33504;52.066;6.096;2023-06-14T03:13:09;101519.25;;;19.05;30.94
47742;BME280;33504;52.066;6.096;2023-06-14T03:15:36;101519.87;;;19.01;30.97
47742;BME280;33504;52.066;6.096;2023-06-14T03:18:03;101520.96;;;18.98;31.13
47742;BME280;33504;52.066;6.096;2023-06-14T03:20:29;101519.75;;;18.95;31.28
47742;BME280;33504;52.066;6.096;2023-06-14T03:22:56;101522.42;;;19.25;31.11
47742;BME280;33504;52.066;6.096;2023-06-14T03:25:23;101523.24;;;18.90;31.37
47742;BME280;33504;52.066;6.096;2023-06-14T03:27:50;101528.07;;;19.22;31.22
47742;BME280;33504;52.066;6.096;2023-06-14T03:30:16;101529.96;;;19.19;31.19
47742;BME280;33504;52.066;6.096;2023-06-14T03:32:44;101534.60;;;18.87;31.37
47742;BME280;33504;52.066;6.096;2023-06-14T03:35:11;101536.33;;;19.13;31.31
47742;BME280;33504;52.066;6.096;2023-06-14T03:37:37;101538.36;;;18.82;31.54
47742;BME280;33504;52.066;6.096;2023-06-14T03:40:05;101536.10;;;19.09;31.46
47742;BME280;33504;52.066;6.096;2023-06-14T03:42:32;101539.04;;;18.83;31.33
47742;BME280;33504;52.066;6.096;2023-06-14T03:44:59;101540.01;;;19.08;31.64
47742;BME280;33504;52.066;6.096;2023-06-14T03:47:26;101538.75;;;19.07;31.75
47742;BME280;33504;52.066;6.096;2023-06-14T03:49:52;101539.26;;;19.12;31.44
47742;BME280;33504;52.066;6.096;2023-06-14T03:52:19;101539.60;;;19.11;31.49
47742;BME280;33504;52.066;6.096;2023-06-14T03:54:46;101543.93;;;18.79;31.53
47742;BME280;33504;52.066;6.096;2023-06-14T03:57:12;101547.64;;;19.00;31.82
47742;BME280;33504;52.066;6.096;2023-06-14T03:59:40;101549.01;;;18.98;31.77
47742;BME280;33504;52.066;6.096;2023-06-14T04:02:06;101550.28;;;18.71;32.01
47742;BME280;33504;52.066;6.096;2023-06-14T04:04:33;101552.79;;;18.99;31.88
47742;BME280;33504;52.066;6.096;2023-06-14T04:07:00;101555.46;;;18.98;32.21
47742;BME280;33504;52.066;6.096;2023-06-14T04:09:26;101559.06;;;18.99;32.19
47742;BME280;33504;52.066;6.096;2023-06-14T04:11:53;101561.45;;;19.01;31.97
47742;BME280;33504;52.066;6.096;2023-06-14T04:14:20;101565.55;;;18.76;31.99
47742;BME280;33504;52.066;6.096;2023-06-14T04:16:48;101565.67;;;19.00;32.00
47742;BME280;33504;52.066;6.096;2023-06-14T04:19:15;101570.01;;;19.00;32.18
47742;BME280;33504;52.066;6.096;2023-06-14T04:21:42;101572.49;;;19.00;32.18
47742;BME280;33504;52.066;6.096;2023-06-14T04:24:09;101572.71;;;18.73;32.28
47742;BME280;33504;52.066;6.096;2023-06-14T04:26:35;101575.93;;;19.03;32.67
47742;BME280;33504;52.066;6.096;2023-06-14T04:29:02;101576.65;;;18.81;32.31
47742;BME280;33504;52.066;6.096;2023-06-14T04:31:29;101575.94;;;19.15;32.11
47742;BME280;33504;52.066;6.096;2023-06-14T04:33:56;101579.35;;;18.90;32.34
47742;BME280;33504;52.066;6.096;2023-06-14T04:36:24;101581.63;;;18.89;32.48
47742;BME280;33504;52.066;6.096;2023-06-14T04:38:51;101585.55;;;19.02;32.15
47742;BME280;33504;52.066;6.096;2023-06-14T04:41:18;101584.50;;;19.06;32.34
47742;BME280;33504;52.066;6.096;2023-06-14T04:43:45;101588.01;;;19.08;32.34
47742;BME280;33504;52.066;6.096;2023-06-14T04:46:11;101590.72;;;19.14;32.08
47742;BME280;33504;52.066;6.096;2023-06-14T04:48:39;101595.54;;;19.13;32.60
47742;BME280;33504;52.066;6.096;2023-06-14T04:51:06;101598.34;;;19.02;32.38
47742;BME280;33504;52.066;6.096;2023-06-14T04:53:33;101600.91;;;19.28;32.49
47742;BME280;33504;52.066;6.096;2023-06-14T04:56:00;101606.11;;;19.13;32.53
47742;BME280;33504;52.066;6.096;2023-06-14T04:58:27;101602.89;;;19.68;32.55
47742;BME280;33504;52.066;6.096;2023-06-14T05:00:55;101603.99;;;19.74;32.77
47742;BME280;33504;52.066;6.096;2023-06-14T05:03:22;101605.46;;;19.53;32.85
47742;BME280;33504;52.066;6.096;2023-06-14T05:05:49;101606.85;;;19.60;32.64
47742;BME280;33504;52.066;6.096;2023-06-14T05:08:16;101607.51;;;19.67;32.59
47742;BME280;33504;52.066;6.096;2023-06-14T05:10:43;101610.97;;;19.54;32.58
47742;BME280;33504;52.066;6.096;2023-06-14T05:13:10;101611.65;;;19.82;32.78
47742;BME280;33504;52.066;6.096;2023-06-14T05:15:37;101615.98;;;19.70;32.88
47742;BME280;33504;52.066;6.096;2023-06-14T05:18:03;101615.31;;;19.99;32.92
47742;BME280;33504;52.066;6.096;2023-06-14T05:20:30;101613.67;;;20.06;32.93
47742;BME280;33504;52.066;6.096;2023-06-14T05:22:57;101616.67;;;19.77;33.45
47742;BME280;33504;52.066;6.096;2023-06-14T05:25:24;101619.57;;;20.18;32.57
47742;BME280;33504;52.066;6.096;2023-06-14T05:27:51;101617.98;;;20.05;32.66
47742;BME280;33504;52.066;6.096;2023-06-14T05:30:18;101618.20;;;20.32;32.46
47742;BME280;33504;52.066;6.096;2023-06-14T05:32:45;101615.08;;;20.12;32.36
47742;BME280;33504;52.066;6.096;2023-06-14T05:35:12;101616.01;;;20.08;32.18
47742;BME280;33504;52.066;6.096;2023-06-14T05:37:38;101618.91;;;20.45;31.94
47742;BME280;33504;52.066;6.096;2023-06-14T05:40:06;101617.92;;;20.48;31.84
47742;BME280;33504;52.066;6.096;2023-06-14T05:42:33;101624.80;;;20.43;31.74
47742;BME280;33504;52.066;6.096;2023-06-14T05:45:00;101628.32;;;20.50;31.65
47742;BME280;33504;52.066;6.096;2023-06-14T05:47:27;101629.82;;;20.26;31.43
47742;BME280;33504;52.066;6.096;2023-06-14T05:49:54;101632.73;;;20.40;31.48
47742;BME280;33504;52.066;6.096;2023-06-14T05:52:21;101638.73;;;20.26;31.39
47742;BME280;33504;52.066;6.096;2023-06-14T05:54:48;101641.06;;;20.57;30.66
47742;BME280;33504;52.066;6.096;2023-06-14T05:57:15;101639.42;;;20.51;30.74
47742;BME280;33504;52.066;6.096;2023-06-14T05:59:43;101640.67;;;20.70;30.89
47742;BME280;33504;52.066;6.096;2023-06-14T06:02:09;101642.10;;;20.36;31.21
47742;BME280;33504;52.066;6.096;2023-06-14T06:04:36;101645.67;;;20.88;30.98
47742;BME280;33504;52.066;6.096;2023-06-14T06:07:03;101645.27;;;21.00;30.92
47742;BME280;33504;52.066;6.096;2023-06-14T06:09:31;101647.37;;;21.28;30.45
47742;BME280;33504;52.066;6.096;2023-06-14T06:11:58;101647.54;;;21.57;30.19
47742;BME280;33504;52.066;6.096;2023-06-14T06:14:24;101648.97;;;21.43;29.91
47742;BME280;33504;52.066;6.096;2023-06-14T06:16:51;101653.26;;;21.60;29.10
47742;BME280;33504;52.066;6.096;2023-06-14T06:19:18;101654.26;;;21.53;29.94
47742;BME280;33504;52.066;6.096;2023-06-14T06:21:45;101656.89;;;21.56;29.15
47742;BME280;33504;52.066;6.096;2023-06-14T06:24:12;101658.93;;;21.38;29.18
47742;BME280;33504;52.066;6.096;2023-06-14T06:26:39;101659.31;;;21.41;29.01
47742;BME280;33504;52.066;6.096;2023-06-14T06:29:07;101660.68;;;21.28;28.99
47742;BME280;33504;52.066;6.096;2023-06-14T06:31:34;101662.80;;;21.86;28.78
47742;BME280;33504;52.066;6.096;2023-06-14T06:34:01;101665.32;;;22.19;28.32
47742;BME280;33504;52.066;6.096;2023-06-14T06:36:28;101663.45;;;21.99;28.66
47742;BME280;33504;52.066;6.096;2023-06-14T06:38:56;101663.03;;;22.05;29.07
47742;BME280;33504;52.066;6.096;2023-06-14T06:41:23;101670.59;;;21.95;28.48
47742;BME280;33504;52.066;6.096;2023-06-14T06:43:50;101672.41;;;22.18;28.23
47742;BME280;33504;52.066;6.096;2023-06-14T06:46:18;101678.75;;;22.23;27.95
47742;BME280;33504;52.066;6.096;2023-06-14T06:48:45;101674.51;;;22.08;27.63
47742;BME280;33504;52.066;6.096;2023-06-14T06:51:12;101674.92;;;22.12;27.60
47742;BME280;33504;52.066;6.096;2023-06-14T06:53:42;101676.74;;;22.55;27.54
47742;BME280;33504;52.066;6.096;2023-06-14T06:56:09;101675.93;;;22.64;27.11
47742;BME280;33504;52.066;6.096;2023-06-14T06:58:37;101676.19;;;22.82;27.06
47742;BME280;33504;52.066;6.096;2023-06-14T07:01:03;101679.51;;;22.91;26.85
47742;BME280;33504;52.066;6.096;2023-06-14T07:03:30;101687.40;;;22.88;26.54
47742;BME280;33504;52.066;6.096;2023-06-14T07:05:57;101687.10;;;23.34;26.31
47742;BME280;33504;52.066;6.096;2023-06-14T07:08:24;101691.84;;;22.78;26.82
47742;BME280;33504;52.066;6.096;2023-06-14T07:10:51;101692.10;;;23.13;25.80
47742;BME280;33504;52.066;6.096;2023-06-14T07:13:17;101693.30;;;23.63;25.80
47742;BME280;33504;52.066;6.096;2023-06-14T07:15:45;101690.04;;;23.91;25.84
47742;BME280;33504;52.066;6.096;2023-06-14T07:18:11;101689.40;;;24.19;25.86
47742;BME280;33504;52.066;6.096;2023-06-14T07:20:39;101697.66;;;23.52;24.97
47742;BME280;33504;52.066;6.096;2023-06-14T07:23:06;101690.14;;;23.78;24.71
47742;BME280;33504;52.066;6.096;2023-06-14T07:25:33;101697.09;;;23.69;25.38
47742;BME280;33504;52.066;6.096;2023-06-14T07:28:00;101699.10;;;23.84;25.35
47742;BME280;33504;52.066;6.096;2023-06-14T07:30:27;101703.12;;;24.53;24.68
47742;BME280;33504;52.066;6.096;2023-06-14T07:32:55;101704.00;;;24.96;24.24
47742;BME280;33504;52.066;6.096;2023-06-14T07:35:22;101705.34;;;24.54;24.03
47742;BME280;33504;52.066;6.096;2023-06-14T07:37:48;101703.93;;;24.43;24.39
47742;BME280;33504;52.066;6.096;2023-06-14T07:40:16;101699.52;;;24.16;24.04
47742;BME280;33504;52.066;6.096;2023-06-14T07:42:43;101700.29;;;25.11;23.92
47742;BME280;33504;52.066;6.096;2023-06-14T07:45:13;101704.22;;;24.86;23.84
47742;BME280;33504;52.066;6.096;2023-06-14T07:47:40;101702.49;;;25.60;23.60
47742;BME280;33504;52.066;6.096;2023-06-14T07:50:09;101708.60;;;25.49;23.09
47742;BME280;33504;52.066;6.096;2023-06-14T07:52:36;101707.51;;;25.62;22.95
47742;BME280;33504;52.066;6.096;2023-06-14T07:55:04;101712.05;;;26.14;22.46
47742;BME280;33504;52.066;6.096;2023-06-14T07:57:32;101712.84;;;26.05;22.76
47742;BME280;33504;52.066;6.096;2023-06-14T07:59:59;101713.37;;;25.92;22.75
47742;BME280;33504;52.066;6.096;2023-06-14T08:02:26;101713.59;;;25.48;22.65
47742;BME280;33504;52.066;6.096;2023-06-14T08:04:54;101713.87;;;25.45;22.45
47742;BME280;33504;52.066;6.096;2023-06-14T08:07:21;101719.48;;;26.02;22.82
47742;BME280;33504;52.066;6.096;2023-06-14T08:09:50;101725.22;;;26.34;22.63
47742;BME280;33504;52.066;6.096;2023-06-14T08:12:18;101717.17;;;25.43;22.30
47742;BME280;33504;52.066;6.096;2023-06-14T08:14:46;101713.67;;;26.21;22.40
47742;BME280;33504;52.066;6.096;2023-06-14T08:17:12;101712.47;;;26.18;21.76
47742;BME280;33504;52.066;6.096;2023-06-14T08:19:40;101710.06;;;26.37;22.01
47742;BME280;33504;52.066;6.096;2023-06-14T08:22:07;101706.58;;;26.70;22.20
47742;BME280;33504;52.066;6.096;2023-06-14T08:24:34;101707.89;;;26.11;21.95
47742;BME280;33504;52.066;6.096;2023-06-14T08:27:01;101703.12;;;26.38;21.12
47742;BME280;33504;52.066;6.096;2023-06-14T08:29:28;101704.27;;;26.60;21.38
47742;BME280;33504;52.066;6.096;2023-06-14T08:31:56;101700.55;;;26.54;21.30
47742;BME280;33504;52.066;6.096;2023-06-14T08:34:23;101701.49;;;26.42;21.53
47742;BME280;33504;52.066;6.096;2023-06-14T08:36:51;101705.03;;;26.13;21.07
47742;BME280;33504;52.066;6.096;2023-06-14T08:39:18;101700.78;;;26.59;21.45
47742;BME280;33504;52.066;6.096;2023-06-14T08:41:46;101703.94;;;26.85;20.72
47742;BME280;33504;52.066;6.096;2023-06-14T08:44:16;101701.04;;;26.96;20.73
47742;BME280;33504;52.066;6.096;2023-06-14T08:46:43;101697.10;;;26.80;20.83
47742;BME280;33504;52.066;6.096;2023-06-14T08:49:12;101694.83;;;27.02;20.78
47742;BME280;33504;52.066;6.096;2023-06-14T08:51:39;101698.57;;;27.88;20.35
47742;BME280;33504;52.066;6.096;2023-06-14T08:54:07;101690.24;;;27.46;20.31
47742;BME280;33504;52.066;6.096;2023-06-14T08:56:36;101694.46;;;27.59;20.35
47742;BME280;33504;52.066;6.096;2023-06-14T08:59:06;101693.01;;;27.94;20.53
47742;BME280;33504;52.066;6.096;2023-06-14T09:01:33;101690.69;;;26.81;20.86
47742;BME280;33504;52.066;6.096;2023-06-14T09:04:01;101691.12;;;27.00;20.42
47742;BME280;33504;52.066;6.096;2023-06-14T09:06:28;101690.74;;;27.85;20.82
47742;BME280;33504;52.066;6.096;2023-06-14T09:08:55;101687.55;;;28.61;19.81
47742;BME280;33504;52.066;6.096;2023-06-14T09:11:23;101694.54;;;27.88;20.80
47742;BME280;33504;52.066;6.096;2023-06-14T09:13:51;101693.74;;;28.41;19.64
47742;BME280;33504;52.066;6.096;2023-06-14T09:16:18;101696.42;;;28.57;19.25
47742;BME280;33504;52.066;6.096;2023-06-14T09:18:47;101691.46;;;28.43;18.83
47742;BME280;33504;52.066;6.096;2023-06-14T09:21:15;101690.12;;;28.69;18.87
47742;BME280;33504;52.066;6.096;2023-06-14T09:23:44;101691.05;;;28.83;19.39
47742;BME280;33504;52.066;6.096;2023-06-14T09:26:13;101689.59;;;28.99;18.44
47742;BME280;33504;52.066;6.096;2023-06-14T09:28:42;101689.81;;;27.99;18.83
47742;BME280;33504;52.066;6.096;2023-06-14T09:31:10;101691.54;;;28.81;19.58
47742;BME280;33504;52.066;6.096;2023-06-14T09:33:37;101691.42;;;28.82;19.06
47742;BME280;33504;52.066;6.096;2023-06-14T09:36:04;101694.64;;;29.28;18.90
47742;BME280;33504;52.066;6.096;2023-06-14T09:38:36;101689.54;;;29.39;18.32
47742;BME280;33504;52.066;6.096;2023-06-14T09:41:04;101695.78;;;29.00;18.17
47742;BME280;33504;52.066;6.096;2023-06-14T09:43:30;101700.59;;;29.70;18.73
47742;BME280;33504;52.066;6.096;2023-06-14T09:45:58;101690.96;;;29.36;18.62
47742;BME280;33504;52.066;6.096;2023-06-14T09:48:25;101695.93;;;30.04;17.88
47742;BME280;33504;52.066;6.096;2023-06-14T09:50:55;101696.83;;;30.01;17.96
47742;BME280;33504;52.066;6.096;2023-06-14T09:53:25;101695.97;;;29.47;17.79
47742;BME280;33504;52.066;6.096;2023-06-14T09:55:55;101693.72;;;29.51;17.50
47742;BME280;33504;52.066;6.096;2023-06-14T09:58:26;101696.55;;;30.24;17.66
47742;BME280;33504;52.066;6.096;2023-06-14T10:00:55;101697.91;;;29.46;17.46
47742;BME280;33504;52.066;6.096;2023-06-14T10:03:27;101691.71;;;30.09;18.21
47742;BME280;33504;52.066;6.096;2023-06-14T10:05:55;101693.49;;;28.94;17.33
47742;BME280;33504;52.066;6.096;2023-06-14T10:08:25;101699.13;;;29.33;18.09
47742;BME280;33504;52.066;6.096;2023-06-14T10:10:56;101707.27;;;30.13;17.88
47742;BME280;33504;52.066;6.096;2023-06-14T10:13:23;101706.81;;;29.87;16.96
47742;BME280;33504;52.066;6.096;2023-06-14T10:15:57;101705.85;;;29.35;17.33
47742;BME280;33504;52.066;6.096;2023-06-14T10:18:33;101700.24;;;29.40;17.60
47742;BME280;33504;52.066;6.096;2023-06-14T10:21:08;101696.41;;;30.11;17.11
47742;BME280;33504;52.066;6.096;2023-06-14T10:23:43;101696.74;;;29.98;17.05
47742;BME280;33504;52.066;6.096;2023-06-14T10:26:19;101695.79;;;30.22;17.08
47742;BME280;33504;52.066;6.096;2023-06-14T10:28:57;101694.25;;;30.52;16.59
47742;BME280;33504;52.066;6.096;2023-06-14T10:31:40;101699.38;;;29.83;16.60
47742;BME280;33504;52.066;6.096;2023-06-14T10:34:07;101701.40;;;30.20;16.67
47742;BME280;33504;52.066;6.096;2023-06-14T10:36:34;101700.49;;;30.72;16.43
47742;BME280;33504;52.066;6.096;2023-06-14T10:39:05;101698.65;;;30.45;16.27
47742;BME280;33504;52.066;6.096;2023-06-14T10:41:35;101700.47;;;30.92;15.73
47742;BME280;33504;52.066;6.096;2023-06-14T10:44:43;101694.87;;;31.01;15.76
47742;BME280;33504;52.066;6.096;2023-06-14T10:47:27;101693.47;;;30.54;16.29
47742;BME280;33504;52.066;6.096;2023-06-14T10:49:55;101696.51;;;29.51;16.35
47742;BME280;33504;52.066;6.096;2023-06-14T10:52:25;101693.52;;;29.84;16.64
47742;BME280;33504;52.066;6.096;2023-06-14T10:54:58;101700.67;;;29.85;16.23
47742;BME280;33504;52.066;6.096;2023-06-14T10:57:25;101695.69;;;30.45;17.18
47742;BME280;33504;52.066;6.096;2023-06-14T10:59:53;101690.80;;;30.38;16.08
47742;BME280;33504;52.066;6.096;2023-06-14T11:02:42;101699.00;;;30.08;15.58
47742;BME280;33504;52.066;6.096;2023-06-14T11:05:14;101691.63;;;29.53;16.81
47742;BME280;33504;52.066;6.096;2023-06-14T11:07:52;101699.40;;;29.51;17.64
47742;BME280;33504;52.066;6.096;2023-06-14T11:10:29;101698.84;;;29.00;17.17
47742;BME280;33504;52.066;6.096;2023-06-14T11:12:57;101694.80;;;29.93;17.53
47742;BME280;33504;52.066;6.096;2023-06-14T11:15:28;101690.50;;;30.60;17.35
47742;BME280;33504;52.066;6.096;2023-06-14T11:17:55;101704.58;;;30.06;17.50
47742;BME280;33504;52.066;6.096;2023-06-14T11:20:25;101698.77;;;30.21;16.82
47742;BME280;33504;52.066;6.096;2023-06-14T11:22:53;101686.57;;;30.68;16.67
47742;BME280;33504;52.066;6.096;2023-06-14T11:25:20;101689.59;;;30.39;17.04
47742;BME280;33504;52.066;6.096;2023-06-14T11:27:49;101695.92;;;30.80;16.83
47742;BME280;33504;52.066;6.096;2023-06-14T11:30:17;101691.99;;;30.21;17.36
47742;BME280;33504;52.066;6.096;2023-06-14T11:32:46;101694.70;;;30.94;16.57
47742;BME280;33504;52.066;6.096;2023-06-14T11:35:13;101671.73;;;31.11;16.20
47742;BME280;33504;52.066;6.096;2023-06-14T11:37:41;101686.36;;;31.15;16.70
47742;BME280;33504;52.066;6.096;2023-06-14T11:40:09;101682.15;;;30.73;16.89
47742;BME280;33504;52.066;6.096;2023-06-14T11:42:37;101679.33;;;31.27;16.48
47742;BME280;33504;52.066;6.096;2023-06-14T11:45:07;101680.16;;;30.38;16.80
47742;BME280;33504;52.066;6.096;2023-06-14T11:47:34;101679.91;;;30.88;16.36
47742;BME280;33504;52.066;6.096;2023-06-14T11:50:02;101694.34;;;30.65;15.83
47742;BME280;33504;52.066;6.096;2023-06-14T11:52:30;101689.46;;;30.90;16.06
47742;BME280;33504;52.066;6.096;2023-06-14T11:54:58;101689.37;;;30.86;15.74
47742;BME280;33504;52.066;6.096;2023-06-14T11:57:25;101695.33;;;31.22;15.86
47742;BME280;33504;52.066;6.096;2023-06-14T11:59:54;101689.89;;;30.80;15.64
47742;BME280;33504;52.066;6.096;2023-06-14T12:02:22;101694.40;;;31.00;15.51
47742;BME280;33504;52.066;6.096;2023-06-14T12:04:49;101695.23;;;31.14;15.80
47742;BME280;33504;52.066;6.096;2023-06-14T12:07:17;101702.95;;;30.88;15.58
47742;BME280;33504;52.066;6.096;2023-06-14T12:10:04;101698.91;;;30.44;15.65
47742;BME280;33504;52.066;6.096;2023-06-14T12:12:31;101699.33;;;31.06;15.95
47742;BME280;33504;52.066;6.096;2023-06-14T12:15:03;101693.19;;;31.21;16.10
47742;BME280;33504;52.066;6.096;2023-06-14T12:17:32;101693.18;;;31.31;16.21
47742;BME280;33504;52.066;6.096;2023-06-14T12:20:05;101691.84;;;30.65;16.13
47742;BME280;33504;52.066;6.096;2023-06-14T12:22:33;101692.28;;;29.93;16.54
47742;BME280;33504;52.066;6.096;2023-06-14T12:25:00;101693.90;;;30.58;16.68
47742;BME280;33504;52.066;6.096;2023-06-14T12:27:27;101688.24;;;30.91;16.56
47742;BME280;33504;52.066;6.096;2023-06-14T12:30:04;101685.69;;;31.36;15.96
47742;BME280;33504;52.066;6.096;2023-06-14T12:32:31;101693.99;;;31.51;16.00
47742;BME280;33504;52.066;6.096;2023-06-14T12:34:58;101684.56;;;31.76;15.63
47742;BME280;33504;52.066;6.096;2023-06-14T12:37:25;101685.48;;;30.98;15.78
47742;BME280;33504;52.066;6.096;2023-06-14T12:39:53;101681.18;;;31.21;15.89
47742;BME280;33504;52.066;6.096;2023-06-14T12:42:20;101680.94;;;32.20;15.86
47742;BME280;33504;52.066;6.096;2023-06-14T12:44:47;101684.14;;;31.88;15.51
47742;BME280;33504;52.066;6.096;2023-06-14T12:47:15;101682.92;;;32.56;15.41
47742;BME280;33504;52.066;6.096;2023-06-14T12:49:42;101676.74;;;31.98;15.96
47742;BME280;33504;52.066;6.096;2023-06-14T12:52:09;101682.18;;;31.72;15.89
47742;BME280;33504;52.066;6.096;2023-06-14T12:54:37;101682.45;;;32.19;15.56